台北 の空港の天気 - METARとTAF

台湾桃園国際空港 ( RCTP / TPE ) - 台湾 台北市
飛行場実況気象(Metar)
観測時間06/18 03:30 CST (06/17 19:30 UTC)
風向・風速南 3m/s
視程10km以上
天気現象
少しの雲 雲底高度 610m
全天の8割程度の雲 雲底高度 1070m
気温27℃
湿度89%
気圧1009hPa
METARRCTP 171930Z 19005KT 9999 FEW020 BKN035 27/25 Q1009 NOSIG RMK A2981
過去の天気等 Google飛行場航空写真 Wunderground天気予報

過去48時間のMETAR

飛行場予報(TAF)
発表時間: 6/18 01:00 CST (6/17 17:00 UTC)
予報対象時間: 18日2時 CST ~ 19日8時 CST
風向・風速南南西 3m/s
視程10km以上
少しの雲 雲底高度 460m
全天の8割程度の雲 雲底高度 980m
全天の8割程度の雲 雲底高度 1830m
18日2時 CST ~ 18日8時 CST に一時的に
少しの雲 雲底高度 370m
全天の8割程度の雲 雲底高度 670m
全天の8割程度の雲 雲底高度 1520m
18日8時 CST ~ 18日10時 CST に徐々に
風向・風速北西 3m/s
18日12時 CST ~ 18日18時 CST に一時的に
風向・風速西 5m/s
少しの雲 雲底高度 370m
少しの塔状積雲 雲底高度 460m
全天の8割程度の雲 雲底高度 670m
全天の8割程度の雲 雲底高度 1520m
18日18時 CST ~ 18日20時 CST に徐々に
風向・風速南南西 3m/s
TAF RCTP 171700Z 1718/1824 20005KT 9999 FEW015 BKN032 BKN060
TEMPO 1718/1724 FEW012 BKN022 BKN050
BECMG 1800/1802 31005KT
TEMPO 1804/1810 26010KT FEW012 FEW015TCU BKN022 BKN050
BECMG 1810/1812 21005KT